Whitehorse International Airport
CYXY : now visible

Airfield :











YOU CAN JOIN US ON...

 
LOGIN :

Register | Disclaimer

   EN    FR    IT 

 









Legend :    VFR   Marginal VFR   IFR   Intensive IFR   Very Intensive IFR
Visi :
Ceiling :
>= 8 km
>= 3000ft
5 to 8 km
1000 to 3000 ft
1500m to 5 km
500 to 1000 ft
800 to 1500m
200 to 500 ft
< 800m
< 200 ft
Symbols :   Thunderstorms  Fog  Heavy snow  Heavy precipitations  Wind > 20 kt






- Airport Elevation : 2317 ft
- IATA code : YXY


CYXY - Whitehorse International

CURRENT METAR :
  • 141200Z 19012G17KT 15SM OVC006 M11/M12 A2985 RMK ST8 SLP165

EXPIRED METARs :
  • 141100Z 18013KT 15SM OVC006 M11/M12 A2985 RMK ST8 SLP166
  • 141000Z 19013KT 15SM OVC006 M10/M12 A2985 RMK ST8 SLP165

TAF TAF CYXY
Valid from the 14 at 12:00 until the 15 at 00:00 UTC


141138Z 1412/1424 18012KT P6SM OVC006
TEMPO 1412/1416 BKN012
FM141600 18010KT P6SM BKN012
TEMPO 1416/1420 SCT015
FM142000 18008KT P6SM FEW020 RMK NXT FCST BY 141800Z



MET'MAP, your aeronautical weather chart ! - Copyright ORBIFLY December 2007 - Disclaimer

ORBIFLY MET'MAP TEAM :

Programming & Development : Alexandra Zaïnal
Concept & original design : Baudouin d'Aumeries
Assistance for programming : Marc-Olivier Méhu
Technical & hardware support : Manuel Goepfert

Contact : metmap@orbifly.com




SOURCES & CREDITS :

   NOAA       Earth
Advisory